createdAt,value
2023-05-08T00:00:03.733Z,78.4
2023-05-08T00:03:03.588Z,78.4
2023-05-08T00:06:03.168Z,78.4
2023-05-08T00:09:03.195Z,78.4
2023-05-08T00:12:03.294Z,78.4
2023-05-08T00:15:03.238Z,78.4
2023-05-08T00:18:03.484Z,78.8
2023-05-08T00:21:03.255Z,78.8
2023-05-08T00:24:03.300Z,78.8
2023-05-08T00:27:03.186Z,78.8
2023-05-08T00:30:03.234Z,78.8
2023-05-08T00:33:03.536Z,78.8
2023-05-08T00:36:03.345Z,78.8
2023-05-08T00:39:03.250Z,78.8
2023-05-08T00:42:03.201Z,78.8
2023-05-08T00:45:03.266Z,78.8
2023-05-08T00:48:03.388Z,78.8
2023-05-08T00:51:03.231Z,78.8
2023-05-08T00:54:03.242Z,78.8
2023-05-08T00:57:03.222Z,78.8
2023-05-08T01:00:03.449Z,78.8
2023-05-08T01:03:03.632Z,78.8
2023-05-08T01:06:03.302Z,79.7
2023-05-08T01:09:03.269Z,79.7
2023-05-08T01:12:03.265Z,79.7
2023-05-08T01:15:03.222Z,79.7
2023-05-08T01:18:03.446Z,79.7
2023-05-08T01:21:03.143Z,79.7
2023-05-08T01:24:03.262Z,79.7
2023-05-08T01:27:03.228Z,79.7
2023-05-08T01:30:03.364Z,79.7
2023-05-08T01:33:03.491Z,79.7
2023-05-08T01:36:03.279Z,79.7
2023-05-08T01:39:03.271Z,79.7
2023-05-08T01:42:03.195Z,79.7
2023-05-08T01:45:03.246Z,79.7
2023-05-08T01:48:03.401Z,79.7
2023-05-08T01:51:03.165Z,79.7
2023-05-08T01:54:03.420Z,79.7
2023-05-08T01:57:03.196Z,79.7
2023-05-08T02:00:03.487Z,79.7
2023-05-08T02:03:03.472Z,81
2023-05-08T02:06:03.304Z,81
2023-05-08T02:09:03.785Z,81
2023-05-08T02:12:03.368Z,81
2023-05-08T02:15:03.319Z,81
2023-05-08T02:18:03.565Z,81
2023-05-08T02:21:03.217Z,81
2023-05-08T02:24:03.225Z,81
2023-05-08T02:27:03.287Z,81
2023-05-08T02:30:03.258Z,81
2023-05-08T02:33:03.546Z,81
2023-05-08T02:36:03.213Z,81
2023-05-08T02:39:03.277Z,81
2023-05-08T02:42:03.222Z,81
2023-05-08T02:45:03.405Z,81
2023-05-08T02:48:03.399Z,81
2023-05-08T02:51:03.151Z,81
2023-05-08T02:54:03.283Z,81
2023-05-08T02:57:03.186Z,81
2023-05-08T03:00:03.399Z,81
2023-05-08T03:03:03.418Z,81
2023-05-08T03:06:03.195Z,81
2023-05-08T03:09:03.214Z,81
2023-05-08T03:12:03.209Z,81
2023-05-08T03:15:03.257Z,81.8
2023-05-08T03:18:03.334Z,81.8
2023-05-08T03:21:03.171Z,81.8
2023-05-08T03:24:03.167Z,81.8
2023-05-08T03:27:03.188Z,81.8
2023-05-08T03:30:03.269Z,81.8
2023-05-08T03:33:03.216Z,81.8
2023-05-08T03:36:03.267Z,81.8
2023-05-08T03:39:03.187Z,81.8
2023-05-08T03:42:03.206Z,81.8
2023-05-08T03:45:03.222Z,81.8
2023-05-08T03:48:03.310Z,81.8
2023-05-08T03:51:03.285Z,81.8
2023-05-08T03:54:03.205Z,81.8
2023-05-08T03:57:03.132Z,81.8
2023-05-08T04:00:03.313Z,81.8
2023-05-08T04:03:03.497Z,81.8
2023-05-08T04:06:03.260Z,81.8
2023-05-08T04:09:03.177Z,81.8
2023-05-08T04:12:03.289Z,81.8
2023-05-08T04:15:04.328Z,81.8
2023-05-08T04:18:03.306Z,81.8
2023-05-08T04:21:03.295Z,81.8
2023-05-08T04:24:03.379Z,81.8
2023-05-08T04:27:03.279Z,81.8
2023-05-08T04:30:03.351Z,81.8
2023-05-08T04:33:03.489Z,81.8
2023-05-08T04:36:03.223Z,81
2023-05-08T04:39:03.162Z,81
2023-05-08T04:42:03.294Z,81
2023-05-08T04:45:03.485Z,81
2023-05-08T04:48:03.465Z,81
2023-05-08T04:51:03.303Z,81
2023-05-08T04:54:03.321Z,81
2023-05-08T04:57:03.289Z,81
2023-05-08T05:00:03.381Z,81
2023-05-08T05:03:03.268Z,81
2023-05-08T05:06:03.252Z,81
2023-05-08T05:09:03.190Z,80.4
2023-05-08T05:12:03.242Z,80.4
2023-05-08T05:15:03.216Z,80.4
2023-05-08T05:18:03.484Z,80.4
2023-05-08T05:21:03.209Z,80.4
2023-05-08T05:24:03.292Z,80.4
2023-05-08T05:27:03.185Z,80.4
2023-05-08T05:30:03.924Z,80.4
2023-05-08T05:33:03.464Z,80.4
2023-05-08T05:36:03.251Z,80.4
2023-05-08T05:39:03.185Z,80
2023-05-08T05:42:03.235Z,80
2023-05-08T05:45:03.168Z,80
2023-05-08T05:48:03.574Z,80
2023-05-08T05:51:03.234Z,80
2023-05-08T05:54:03.285Z,80
2023-05-08T05:57:03.288Z,78.9
2023-05-08T06:00:03.545Z,78.9
2023-05-08T06:03:03.738Z,78.9
2023-05-08T06:06:03.198Z,78.9
2023-05-08T06:09:03.251Z,78.9
2023-05-08T06:12:03.166Z,78.9
2023-05-08T06:15:03.184Z,78.9
2023-05-08T06:18:03.411Z,78.9
2023-05-08T06:21:03.230Z,78.9
2023-05-08T06:24:03.170Z,78.9
2023-05-08T06:27:03.145Z,78.9
2023-05-08T06:30:03.300Z,78.9
2023-05-08T06:33:03.472Z,78.4
2023-05-08T06:36:03.390Z,78.4
2023-05-08T06:39:03.339Z,78.4
2023-05-08T06:42:03.355Z,78.4
2023-05-08T06:45:03.245Z,78.4
2023-05-08T06:48:03.428Z,78.4
2023-05-08T06:51:03.218Z,78.4
2023-05-08T06:54:03.234Z,77.2
2023-05-08T06:57:03.192Z,77.2
2023-05-08T07:00:04.679Z,77.2
2023-05-08T07:03:03.350Z,77.2
2023-05-08T07:06:03.164Z,77.2
2023-05-08T07:09:03.276Z,77.2
2023-05-08T07:12:03.265Z,77.2
2023-05-08T07:15:27.238Z,77.1
2023-05-08T07:18:03.341Z,77.1
2023-05-08T07:21:03.188Z,77.1
2023-05-08T07:24:03.183Z,77.1
2023-05-08T07:27:03.192Z,77.1
2023-05-08T07:30:03.305Z,77.1
2023-05-08T07:33:03.331Z,77.1
2023-05-08T07:36:03.274Z,77.1
2023-05-08T07:39:03.247Z,75.4
2023-05-08T07:42:03.272Z,75.4
2023-05-08T07:45:03.276Z,75.4
2023-05-08T07:48:03.300Z,75.4
2023-05-08T07:51:03.287Z,75.4
2023-05-08T07:54:03.127Z,75.4
2023-05-08T07:57:03.173Z,75.4
2023-05-08T08:00:03.418Z,75.4
2023-05-08T08:03:03.480Z,75.4
2023-05-08T08:06:03.143Z,74.7
2023-05-08T08:09:03.311Z,74.7
2023-05-08T08:12:03.195Z,74.7
2023-05-08T08:15:03.400Z,74.7
2023-05-08T08:18:03.359Z,74.7
2023-05-08T08:21:03.176Z,74.9
2023-05-08T08:24:03.278Z,74.9
2023-05-08T08:27:03.270Z,74.9
2023-05-08T08:30:20.729Z,74.9
2023-05-08T08:33:03.326Z,74.9
2023-05-08T08:36:03.224Z,74.9
2023-05-08T08:39:03.151Z,72.4
2023-05-08T08:42:03.326Z,72.4
2023-05-08T08:45:03.368Z,72.4
2023-05-08T08:48:03.435Z,72.4
2023-05-08T08:51:03.262Z,72.4
2023-05-08T08:54:03.243Z,72.4
2023-05-08T08:57:03.193Z,71.2
2023-05-08T09:00:03.317Z,71.2
2023-05-08T09:03:03.584Z,71.2
2023-05-08T09:06:03.205Z,71.2
2023-05-08T09:09:03.171Z,71.2
2023-05-08T09:12:03.171Z,71.2
2023-05-08T09:15:03.307Z,71.2
2023-05-08T09:18:03.528Z,71.2
2023-05-08T09:21:03.227Z,71.2
2023-05-08T09:24:03.208Z,71.2
2023-05-08T09:27:03.200Z,69.4
2023-05-08T09:30:03.500Z,69.4
2023-05-08T09:33:03.465Z,69.4
2023-05-08T09:36:03.184Z,69.4
2023-05-08T09:39:03.227Z,69.4
2023-05-08T09:42:03.289Z,69.4
2023-05-08T09:45:03.298Z,69.4
2023-05-08T09:48:03.349Z,69.4
2023-05-08T09:51:03.126Z,69.4
2023-05-08T09:54:03.304Z,69.4
2023-05-08T09:57:03.174Z,69.4
2023-05-08T10:00:03.410Z,69.4
2023-05-08T10:03:03.654Z,69.4
2023-05-08T10:06:03.263Z,69.4
2023-05-08T10:09:03.156Z,68.8
2023-05-08T10:12:03.179Z,68.8
2023-05-08T10:15:03.113Z,68.8
2023-05-08T10:18:03.380Z,68.8
2023-05-08T10:21:03.176Z,68.8
2023-05-08T10:24:03.263Z,68.8
2023-05-08T10:30:03.297Z,68.8
2023-05-08T10:33:03.308Z,66.7
2023-05-08T10:36:03.276Z,66.7
2023-05-08T10:39:03.304Z,66.7
2023-05-08T10:42:03.198Z,66.7
2023-05-08T10:45:03.181Z,66.7
2023-05-08T10:48:03.409Z,66.7
2023-05-08T10:51:03.233Z,66.7
2023-05-08T10:54:03.165Z,66.7
2023-05-08T10:57:03.129Z,66.7
2023-05-08T11:00:03.665Z,66.7
2023-05-08T11:03:03.464Z,66.7
2023-05-08T11:06:03.268Z,66.7
2023-05-08T11:09:03.506Z,66.7
2023-05-08T11:12:03.593Z,66.7
2023-05-08T11:15:03.362Z,65
2023-05-08T11:18:03.280Z,65
2023-05-08T11:21:03.236Z,65
2023-05-08T11:24:03.293Z,65
2023-05-08T11:27:03.262Z,65
2023-05-08T11:30:03.385Z,65
2023-05-08T11:33:03.462Z,65
2023-05-08T11:36:03.258Z,65
2023-05-08T11:39:03.365Z,66
2023-05-08T11:42:03.312Z,66
2023-05-08T11:45:03.184Z,66
2023-05-08T11:48:03.367Z,66
2023-05-08T11:51:03.168Z,66
2023-05-08T11:54:03.250Z,66
2023-05-08T11:57:03.170Z,66
2023-05-08T12:00:03.305Z,66
2023-05-08T12:03:03.581Z,63.5
2023-05-08T12:06:03.358Z,63.5
2023-05-08T12:09:03.271Z,63.5
2023-05-08T12:12:03.227Z,63.5
2023-05-08T12:15:03.162Z,63.5
2023-05-08T12:18:03.385Z,63.5
2023-05-08T12:21:03.556Z,63.5
2023-05-08T12:24:03.181Z,63.5
2023-05-08T12:27:03.166Z,63.5
2023-05-08T12:30:03.245Z,63.5
2023-05-08T12:33:03.429Z,63.5
2023-05-08T12:36:03.260Z,62.2
2023-05-08T12:39:03.510Z,62.2
2023-05-08T12:42:03.725Z,62.2
2023-05-08T12:45:03.144Z,62.2
2023-05-08T12:48:03.393Z,62.2
2023-05-08T12:51:03.214Z,62.2
2023-05-08T12:54:03.255Z,62.2
2023-05-08T12:57:03.176Z,62.2
2023-05-08T13:00:07.030Z,62.2
2023-05-08T13:03:03.371Z,62.2
2023-05-08T13:06:03.201Z,62.2
2023-05-08T13:09:03.265Z,62.2
2023-05-08T13:12:03.391Z,61.9
2023-05-08T13:15:03.152Z,61.9
2023-05-08T13:18:03.856Z,61.9
2023-05-08T13:21:03.198Z,61.9
2023-05-08T13:24:03.267Z,61.9
2023-05-08T13:27:03.422Z,61.9
2023-05-08T13:30:03.384Z,61.9
2023-05-08T13:33:03.356Z,61.9
2023-05-08T13:36:03.246Z,60.6
2023-05-08T13:39:03.326Z,60.6
2023-05-08T13:42:03.245Z,60.6
2023-05-08T13:45:03.195Z,60.6
2023-05-08T13:48:03.390Z,60.6
2023-05-08T13:51:03.192Z,60.6
2023-05-08T13:54:03.204Z,60.6
2023-05-08T13:57:03.188Z,60.6
2023-05-08T14:00:03.222Z,60.6
2023-05-08T14:03:03.437Z,60.6
2023-05-08T14:06:03.178Z,60.6
2023-05-08T14:09:03.198Z,60.6
2023-05-08T14:12:03.212Z,60.6
2023-05-08T14:15:03.202Z,60.6
2023-05-08T14:18:03.363Z,60.6
2023-05-08T14:21:03.091Z,60.6
2023-05-08T14:24:03.201Z,60.6
2023-05-08T14:27:03.267Z,60.6
2023-05-08T14:30:03.391Z,58.7
2023-05-08T14:33:03.496Z,58.7
2023-05-08T14:36:03.236Z,58.7
2023-05-08T14:39:03.524Z,58.7
2023-05-08T14:42:25.783Z,58.7
2023-05-08T14:45:03.500Z,58.7
2023-05-08T14:48:03.462Z,58.7
2023-05-08T14:51:03.229Z,58.7
2023-05-08T14:54:03.789Z,58.7
2023-05-08T14:57:03.374Z,58.7
2023-05-08T15:00:03.193Z,58.7
2023-05-08T15:03:03.569Z,58.7
2023-05-08T15:06:03.226Z,58.7
2023-05-08T15:09:03.243Z,58.7
2023-05-08T15:12:03.252Z,58.7
2023-05-08T15:15:06.810Z,58.7
2023-05-08T15:18:03.287Z,58.7
2023-05-08T15:21:03.170Z,56.1
2023-05-08T15:24:03.288Z,56.1
2023-05-08T15:27:03.149Z,56.1
2023-05-08T15:30:03.327Z,56.1
2023-05-08T15:33:03.391Z,56.1
2023-05-08T15:36:03.292Z,56.1
2023-05-08T15:39:03.168Z,56.1
2023-05-08T15:42:03.409Z,56.1
2023-05-08T15:45:03.157Z,56.1
2023-05-08T15:48:03.298Z,56.1
2023-05-08T15:51:03.243Z,56.1
2023-05-08T15:54:03.286Z,56.1
2023-05-08T15:57:03.434Z,56.1
2023-05-08T16:00:03.328Z,56.1
2023-05-08T16:03:03.573Z,56.1
2023-05-08T16:06:03.720Z,56.1
2023-05-08T16:09:03.246Z,56.1
2023-05-08T16:12:03.237Z,56.1
2023-05-08T16:15:03.225Z,56.1
2023-05-08T16:18:03.418Z,56.1
2023-05-08T16:21:03.440Z,56.1
2023-05-08T16:24:03.176Z,56.1
2023-05-08T16:27:03.286Z,56.1
2023-05-08T16:30:03.580Z,56.1
2023-05-08T16:33:03.596Z,56.1
2023-05-08T16:36:03.378Z,56.1
2023-05-08T16:39:03.220Z,56.2
2023-05-08T16:42:03.372Z,56.2
2023-05-08T16:45:03.263Z,56.2
2023-05-08T16:48:03.439Z,56.2
2023-05-08T16:51:03.160Z,56.2
2023-05-08T16:54:03.251Z,56.2
2023-05-08T16:57:03.197Z,56.2
2023-05-08T17:00:03.373Z,56.2
2023-05-08T17:03:03.529Z,56.2
2023-05-08T17:06:03.212Z,56.2
2023-05-08T17:09:03.286Z,56.2
2023-05-08T17:12:03.260Z,56.2
2023-05-08T17:15:03.202Z,56.2
2023-05-08T17:18:03.328Z,56.2
2023-05-08T17:21:03.163Z,56.2
2023-05-08T17:24:03.238Z,56.2
2023-05-08T17:27:03.166Z,56.2
2023-05-08T17:30:03.418Z,56.2
2023-05-08T17:33:03.425Z,56.2
2023-05-08T17:36:03.390Z,56.2
2023-05-08T17:39:03.127Z,56.2
2023-05-08T17:42:03.189Z,56.2
2023-05-08T17:45:03.194Z,56.2
2023-05-08T17:48:03.480Z,55.5
2023-05-08T17:51:03.190Z,55.5
2023-05-08T17:54:03.279Z,55.5
2023-05-08T17:57:03.195Z,55.5
2023-05-08T18:00:03.319Z,55.5
2023-05-08T18:03:03.589Z,55.5
2023-05-08T18:06:03.164Z,55.5
2023-05-08T18:09:03.195Z,55.5
2023-05-08T18:12:03.243Z,55.5
2023-05-08T18:15:03.265Z,55.5
2023-05-08T18:18:03.331Z,55.5
2023-05-08T18:21:03.246Z,55.9
2023-05-08T18:24:03.260Z,55.9
2023-05-08T18:27:03.236Z,55.9
2023-05-08T18:30:03.292Z,55.9
2023-05-08T18:33:03.328Z,55.9
2023-05-08T18:36:03.507Z,55.9
2023-05-08T18:39:03.234Z,55.9
2023-05-08T18:42:03.277Z,55.9
2023-05-08T18:45:03.336Z,55.8
2023-05-08T18:48:03.269Z,55.8
2023-05-08T18:51:03.147Z,55.8
2023-05-08T18:54:03.334Z,55.8
2023-05-08T18:57:03.187Z,55.8
2023-05-08T19:00:03.218Z,55.8
2023-05-08T19:03:03.669Z,55.8
2023-05-08T19:06:03.147Z,55.8
2023-05-08T19:09:03.115Z,55.8
2023-05-08T19:12:03.222Z,55.8
2023-05-08T19:15:03.254Z,57.4
2023-05-08T19:18:03.423Z,57.4
2023-05-08T19:21:03.195Z,57.4
2023-05-08T19:24:03.212Z,57.4
2023-05-08T19:27:03.229Z,57.4
2023-05-08T19:30:03.253Z,57.4
2023-05-08T19:33:03.220Z,57.4
2023-05-08T19:36:03.201Z,57.4
2023-05-08T19:39:03.288Z,57.4
2023-05-08T19:42:03.184Z,57.4
2023-05-08T19:45:03.261Z,60
2023-05-08T19:48:06.157Z,60
2023-05-08T19:51:03.377Z,60
2023-05-08T19:54:03.301Z,60
2023-05-08T19:57:03.232Z,60
2023-05-08T20:00:03.241Z,61.8
2023-05-08T20:03:03.490Z,61.8
2023-05-08T20:06:04.476Z,61.8
2023-05-08T20:09:03.919Z,61.8
2023-05-08T20:12:03.217Z,61.8
2023-05-08T20:15:03.217Z,61.8
2023-05-08T20:18:03.363Z,62.8
2023-05-08T20:21:03.215Z,62.8
2023-05-08T20:24:03.205Z,62.8
2023-05-08T20:27:03.132Z,62.8
2023-05-08T20:30:03.233Z,63.5
2023-05-08T20:33:03.288Z,63.5
2023-05-08T20:36:03.222Z,63.5
2023-05-08T20:39:03.213Z,63.5
2023-05-08T20:42:03.207Z,63.5
2023-05-08T20:45:03.447Z,63.5
2023-05-08T20:48:03.374Z,63.5
2023-05-08T20:51:03.213Z,64.3
2023-05-08T20:54:03.278Z,64.3
2023-05-08T20:57:03.182Z,64.3
2023-05-08T21:00:03.300Z,64.3
2023-05-08T21:03:03.367Z,64.3
2023-05-08T21:06:03.253Z,64.3
2023-05-08T21:09:04.561Z,64.3
2023-05-08T21:12:03.146Z,64.5
2023-05-08T21:15:03.151Z,64.5
2023-05-08T21:18:03.349Z,64.5
2023-05-08T21:21:03.249Z,64.5
2023-05-08T21:24:03.196Z,64.5
2023-05-08T21:27:03.309Z,64.5
2023-05-08T21:30:03.213Z,64.5
2023-05-08T21:33:03.290Z,64.5
2023-05-08T21:36:03.180Z,65.2
2023-05-08T21:39:03.152Z,65.2
2023-05-08T21:42:03.128Z,65.2
2023-05-08T21:45:03.249Z,65.2
2023-05-08T21:48:03.338Z,65.2
2023-05-08T21:51:03.171Z,65.2
2023-05-08T21:54:03.168Z,65.2
2023-05-08T21:57:03.162Z,65.2
2023-05-08T22:00:03.637Z,65.2
2023-05-08T22:03:03.397Z,66.2
2023-05-08T22:06:03.143Z,66.2
2023-05-08T22:09:03.206Z,66.2
2023-05-08T22:12:03.191Z,66.2
2023-05-08T22:15:03.634Z,66.2
2023-05-08T22:18:03.304Z,66.2
2023-05-08T22:21:03.194Z,66.2
2023-05-08T22:24:03.196Z,67.2
2023-05-08T22:27:03.141Z,67.2
2023-05-08T22:30:03.362Z,67.2
2023-05-08T22:33:03.295Z,67.2
2023-05-08T22:36:03.243Z,67.2
2023-05-08T22:39:03.195Z,67.2
2023-05-08T22:42:03.221Z,67.2
2023-05-08T22:45:03.135Z,68
2023-05-08T22:48:03.403Z,68
2023-05-08T22:51:03.127Z,68
2023-05-08T22:54:03.223Z,68
2023-05-08T22:57:03.179Z,68
2023-05-08T23:00:03.324Z,68
2023-05-08T23:03:03.348Z,68
2023-05-08T23:06:03.239Z,68
2023-05-08T23:09:03.132Z,68
2023-05-08T23:12:03.254Z,68.9
2023-05-08T23:15:03.224Z,68.9
2023-05-08T23:18:03.321Z,68.9
2023-05-08T23:21:03.176Z,68.9
2023-05-08T23:24:03.290Z,68.9
2023-05-08T23:27:03.186Z,68.9
2023-05-08T23:30:03.374Z,68.9
2023-05-08T23:33:03.351Z,68.9
2023-05-08T23:36:03.245Z,69.4
2023-05-08T23:39:03.227Z,69.4
2023-05-08T23:42:03.192Z,69.4
2023-05-08T23:45:03.160Z,69.4
2023-05-08T23:48:03.257Z,69.4
2023-05-08T23:51:03.208Z,69.4
2023-05-08T23:54:03.190Z,69.4
2023-05-08T23:57:03.160Z,69.7
